5 day graph

You are here

Hive Data

Page: 1 of 16645  Records: 998690

Row Date Time Hive Temp Hive Humidity Outside Temp Outside Humidity Bottom Board Temp Outside Wall Temp Electronics Temp Light Levels inHG Fan Heat Cover Notes
Clear Sorted By: Cover descending, Row descending
View 598796 Aug 15 2015 2:46:10pm 76.64 39 70.88 49 69.8 73.4 78.8 207 29.51 0 0 1 NA
View 598795 Aug 15 2015 2:45:09pm 77.36 38 70.88 48 69.8 73.4 80.6 207 29.51 0 0 1 NA
View 598794 Aug 15 2015 2:44:09pm 78.26 37 70.88 49 69.8 73.4 80.6 206 29.51 0 0 1 NA
View 598793 Aug 15 2015 2:43:09pm 78.98 37 70.7 49 69.8 73.4 80.6 206 29.51 0 0 1 NA
View 598792 Aug 15 2015 2:42:08pm 80.06 34 70.7 49 69.8 73.4 80.6 204 29.51 0 0 1 NA
View 598791 Aug 15 2015 2:41:08pm 81.14 34 70.7 48 69.8 73.4 80.6 204 29.51 0 0 1 NA
View 598790 Aug 15 2015 2:40:07pm 82.4 34 70.7 48 69.8 73.4 82.4 204 29.51 0 0 1 NA
View 598789 Aug 15 2015 2:39:07pm 84.02 33 70.52 49 69.8 73.85 84.2 197 29.51 0 0 1 NA
View 598788 Aug 15 2015 2:38:07pm 85.82 30 70.52 49 69.8 73.85 84.2 196 29.51 0 0 1 NA
View 598787 Aug 15 2015 2:37:06pm 87.62 31 70.52 49 69.8 73.4 84.2 194 29.51 0 0 1 NA
View 598786 Aug 15 2015 2:36:06pm 91.22 35 70.52 50 69.8 73.85 86 180 29.51 0 0 1 NA
View 598785 Aug 15 2015 2:34:48pm 91.22 36 70.52 50 69.8 74.75 87.8 179 29.51 0 0 1 NA
View 553191 Jul 9 2015 8:29:24am 85.46 38 72.68 64 64.4 73.85 86 195 29.05 0 0 1 NA
View 553190 Jul 9 2015 8:28:24am 87.98 54 71.96 63 64.4 73.85 86 189 29.05 0 0 1 NA
View 553189 Jul 9 2015 8:27:06am 87.98 54 71.96 63 64.4 73.4 86 188 29.02 0 0 1 NA
View 532359 Jun 21 2015 6:28:27pm 81.68 22 82.76 23 79.7 77 93.2 195 29.21 0 0 1 NA
View 532358 Jun 21 2015 6:27:26pm 82.4 21 82.76 22 79.7 77 95 193 29.21 0 0 1 NA
View 532357 Jun 21 2015 6:26:26pm 83.48 21 82.94 22 79.7 77.45 95 190 29.21 0 0 1 NA
View 532356 Jun 21 2015 6:25:25pm 84.38 21 83.12 22 79.7 77.45 96.8 179 29.21 0 0 1 NA
View 532355 Jun 21 2015 6:24:25pm 85.28 22 83.12 22 80.15 77.9 96.8 168 29.21 0 0 1 NA
View 507054 Jun 3 2015 4:25:07pm 92.48 52 63.86 66 63.05 69.35 84.2 189 29.31 0 0 1 NA
View 507053 Jun 3 2015 4:23:49pm 92.48 51 63.86 66 63.05 70.7 86 189 29.31 0 0 1 Added honey super. Now 5 medium boxes. Added honey super to Kimmi's and is also 5 boxes. Added 3rd medium to Pink hive. Replaced hive bodies(2) on swarm hive. Removed one box from Kimmi Nuc split (found queen) and this hive needs some stores.
View 496972 May 25 2015 5:55:55pm 62.42 56 59.9 66 65.3 59.9 68 241 29.28 0 0 1 NA
View 496971 May 25 2015 5:54:54pm 62.42 56 60.08 66 65.3 59.9 68 242 29.28 0 0 1 NA
View 496970 May 25 2015 5:53:54pm 62.6 56 60.08 66 65.3 59.9 68 241 29.28 0 0 1 NA
View 496969 May 25 2015 5:52:54pm 62.78 56 60.26 66 65.3 60.35 68 241 29.28 0 0 1 NA
View 496968 May 25 2015 5:51:53pm 62.96 56 60.26 66 65.3 60.35 68 241 29.28 0 0 1 NA
View 496967 May 25 2015 5:50:53pm 63.14 56 60.26 66 65.3 60.35 68 240 29.28 0 0 1 NA
View 496966 May 25 2015 5:49:52pm 63.14 55 60.26 66 65.3 60.35 68 240 29.28 0 0 1 NA
View 496965 May 25 2015 5:48:52pm 63.32 56 60.44 66 65.3 60.8 68 239 29.28 0 0 1 NA
View 496964 May 25 2015 5:47:52pm 63.32 55 60.44 66 65.3 60.8 68 239 29.28 0 0 1 NA
View 496963 May 25 2015 5:46:51pm 63.5 55 60.44 66 65.3 60.8 68 239 29.28 0 0 1 NA
View 496962 May 25 2015 5:45:51pm 63.5 55 60.44 66 65.3 60.8 68 237 29.28 0 0 1 NA
View 496961 May 25 2015 5:44:51pm 63.5 55 60.44 66 65.3 60.8 68 237 29.28 0 0 1 NA
View 496960 May 25 2015 5:43:50pm 63.5 55 60.44 66 65.3 60.8 68 237 29.28 0 0 1 NA
View 496959 May 25 2015 5:42:50pm 63.5 55 60.62 66 65.3 60.8 68 238 29.28 0 0 1 NA
View 496958 May 25 2015 5:41:49pm 63.5 56 60.62 66 65.3 60.8 68 239 29.28 0 0 1 NA
View 496957 May 25 2015 5:40:49pm 63.68 55 60.62 66 65.3 60.8 68 239 29.29 0 0 1 NA
View 496956 May 25 2015 5:39:49pm 63.68 54 60.62 65 65.3 60.8 69.8 239 29.28 0 0 1 NA
View 496955 May 25 2015 5:38:48pm 63.86 55 60.62 66 65.3 61.25 69.8 239 29.28 0 0 1 NA
View 496954 May 25 2015 5:37:48pm 64.22 54 60.62 65 65.3 61.25 69.8 238 29.28 0 0 1 NA
View 496953 May 25 2015 5:36:48pm 64.4 53 60.62 65 65.3 61.25 69.8 238 29.28 0 0 1 NA
View 496952 May 25 2015 5:35:47pm 64.58 53 60.62 65 65.3 61.25 69.8 237 29.28 0 0 1 NA
View 496951 May 25 2015 5:34:47pm 64.76 53 60.62 65 65.3 61.7 69.8 238 29.28 0 0 1 NA
View 496950 May 25 2015 5:33:47pm 64.76 52 60.62 65 65.3 61.7 69.8 237 29.28 0 0 1 NA
View 496949 May 25 2015 5:32:46pm 64.94 52 60.62 65 65.3 61.7 69.8 238 29.28 0 0 1 NA
View 496948 May 25 2015 5:31:46pm 65.3 52 60.62 65 64.85 61.7 68 237 29.28 0 0 1 NA
View 496947 May 25 2015 5:30:46pm 65.48 51 60.8 65 64.85 61.7 68 237 29.28 0 0 1 NA
View 496946 May 25 2015 5:29:45pm 65.66 51 60.62 65 64.85 61.7 68 237 29.28 0 0 1 NA
View 496945 May 25 2015 5:28:45pm 65.84 50 60.62 64 64.85 61.7 68 237 29.28 0 0 1 NA
View 496944 May 25 2015 5:27:44pm 66.2 51 60.62 65 64.85 61.7 68 235 29.28 0 0 1 NA
View 496943 May 25 2015 5:26:44pm 66.38 52 60.8 67 64.85 61.7 68 235 29.28 0 0 1 NA
View 496942 May 25 2015 5:25:44pm 66.56 50 60.8 65 64.85 62.15 68 233 29.28 0 0 1 NA
View 496941 May 25 2015 5:24:43pm 66.92 50 60.8 65 64.85 62.15 69.8 232 29.28 0 0 1 NA
View 496940 May 25 2015 5:23:43pm 67.1 50 60.8 65 64.85 62.15 69.8 232 29.28 0 0 1 NA
View 496939 May 25 2015 5:22:43pm 67.28 51 60.8 66 64.85 62.15 69.8 233 29.28 0 0 1 NA
View 496938 May 25 2015 5:21:42pm 67.28 51 60.8 66 64.85 62.15 68 233 29.28 0 0 1 NA
View 496937 May 25 2015 5:20:42pm 67.46 50 60.98 66 64.85 62.15 68 233 29.28 0 0 1 NA
View 496936 May 25 2015 5:19:41pm 67.64 50 60.98 66 64.4 62.15 69.8 232 29.28 0 0 1 NA
View 496935 May 25 2015 5:18:41pm 67.82 50 60.98 65 64.4 62.15 69.8 231 29.28 0 0 1 NA